sensor_id;sensor_type;location;lat;lon;timestamp;P1;durP1;ratioP1;P2;durP2;ratioP2
37383;SDS011;23258;49.718;11.082;2023-04-05T00:02:02;2.40;;;2.20;;
37383;SDS011;23258;49.718;11.082;2023-04-05T00:04:32;2.20;;;2.00;;
37383;SDS011;23258;49.718;11.082;2023-04-05T00:07:07;3.10;;;1.77;;
37383;SDS011;23258;49.718;11.082;2023-04-05T00:09:38;3.03;;;2.80;;
37383;SDS011;23258;49.718;11.082;2023-04-05T00:12:07;2.67;;;2.30;;
37383;SDS011;23258;49.718;11.082;2023-04-05T00:14:37;1.90;;;1.80;;
37383;SDS011;23258;49.718;11.082;2023-04-05T00:17:07;2.20;;;2.00;;
37383;SDS011;23258;49.718;11.082;2023-04-05T00:19:38;2.40;;;2.17;;
37383;SDS011;23258;49.718;11.082;2023-04-05T00:22:11;2.70;;;1.87;;
37383;SDS011;23258;49.718;11.082;2023-04-05T00:24:45;2.30;;;2.20;;
37383;SDS011;23258;49.718;11.082;2023-04-05T00:27:15;2.37;;;2.17;;
37383;SDS011;23258;49.718;11.082;2023-04-05T00:29:45;2.00;;;1.80;;
37383;SDS011;23258;49.718;11.082;2023-04-05T00:32:14;2.10;;;1.90;;
37383;SDS011;23258;49.718;11.082;2023-04-05T00:34:44;2.37;;;2.23;;
37383;SDS011;23258;49.718;11.082;2023-04-05T00:37:16;1.77;;;1.67;;
37383;SDS011;23258;49.718;11.082;2023-04-05T00:39:46;2.83;;;2.20;;
37383;SDS011;23258;49.718;11.082;2023-04-05T00:42:16;2.17;;;2.07;;
37383;SDS011;23258;49.718;11.082;2023-04-05T00:44:46;2.20;;;2.00;;
37383;SDS011;23258;49.718;11.082;2023-04-05T00:47:15;2.40;;;1.97;;
37383;SDS011;23258;49.718;11.082;2023-04-05T00:49:47;4.30;;;2.10;;
37383;SDS011;23258;49.718;11.082;2023-04-05T00:52:19;1.63;;;1.60;;
37383;SDS011;23258;49.718;11.082;2023-04-05T00:54:49;2.10;;;2.00;;
37383;SDS011;23258;49.718;11.082;2023-04-05T00:57:20;1.77;;;1.67;;
37383;SDS011;23258;49.718;11.082;2023-04-05T00:59:50;3.70;;;2.10;;
37383;SDS011;23258;49.718;11.082;2023-04-05T01:02:21;1.67;;;1.57;;
37383;SDS011;23258;49.718;11.082;2023-04-05T01:04:54;1.50;;;1.40;;
37383;SDS011;23258;49.718;11.082;2023-04-05T01:07:30;1.73;;;1.63;;
37383;SDS011;23258;49.718;11.082;2023-04-05T01:10:02;1.83;;;1.73;;
37383;SDS011;23258;49.718;11.082;2023-04-05T01:12:32;2.10;;;1.90;;
37383;SDS011;23258;49.718;11.082;2023-04-05T01:15:02;1.80;;;1.70;;
37383;SDS011;23258;49.718;11.082;2023-04-05T01:17:32;1.70;;;1.60;;
37383;SDS011;23258;49.718;11.082;2023-04-05T01:20:06;2.40;;;2.10;;
37383;SDS011;23258;49.718;11.082;2023-04-05T01:22:51;1.93;;;1.83;;
37383;SDS011;23258;49.718;11.082;2023-04-05T01:25:40;2.03;;;1.93;;
37383;SDS011;23258;49.718;11.082;2023-04-05T01:28:18;3.53;;;2.00;;
37383;SDS011;23258;49.718;11.082;2023-04-05T01:30:56;2.90;;;2.60;;
37383;SDS011;23258;49.718;11.082;2023-04-05T01:33:31;1.77;;;1.67;;
37383;SDS011;23258;49.718;11.082;2023-04-05T01:36:05;2.33;;;2.13;;
37383;SDS011;23258;49.718;11.082;2023-04-05T01:38:37;3.00;;;2.60;;
37383;SDS011;23258;49.718;11.082;2023-04-05T01:41:09;2.27;;;2.17;;
37383;SDS011;23258;49.718;11.082;2023-04-05T01:43:39;2.00;;;1.90;;
37383;SDS011;23258;49.718;11.082;2023-04-05T01:46:11;1.97;;;1.87;;
37383;SDS011;23258;49.718;11.082;2023-04-05T01:48:42;1.77;;;1.67;;
37383;SDS011;23258;49.718;11.082;2023-04-05T01:51:12;2.27;;;2.17;;
37383;SDS011;23258;49.718;11.082;2023-04-05T01:53:43;8.47;;;2.90;;
37383;SDS011;23258;49.718;11.082;2023-04-05T01:56:13;2.83;;;2.63;;
37383;SDS011;23258;49.718;11.082;2023-04-05T01:58:43;2.73;;;2.53;;
37383;SDS011;23258;49.718;11.082;2023-04-05T02:01:15;2.63;;;2.30;;
37383;SDS011;23258;49.718;11.082;2023-04-05T02:03:45;2.57;;;2.27;;
37383;SDS011;23258;49.718;11.082;2023-04-05T02:06:14;2.10;;;2.00;;
37383;SDS011;23258;49.718;11.082;2023-04-05T02:08:44;2.30;;;2.20;;
37383;SDS011;23258;49.718;11.082;2023-04-05T02:11:15;2.63;;;2.43;;
37383;SDS011;23258;49.718;11.082;2023-04-05T02:13:45;2.67;;;2.47;;
37383;SDS011;23258;49.718;11.082;2023-04-05T02:16:17;2.40;;;2.30;;
37383;SDS011;23258;49.718;11.082;2023-04-05T02:18:47;2.37;;;2.17;;
37383;SDS011;23258;49.718;11.082;2023-04-05T02:21:17;3.33;;;2.50;;
37383;SDS011;23258;49.718;11.082;2023-04-05T02:23:47;3.20;;;2.90;;
37383;SDS011;23258;49.718;11.082;2023-04-05T02:26:17;2.63;;;2.43;;
37383;SDS011;23258;49.718;11.082;2023-04-05T02:28:46;2.67;;;2.47;;
37383;SDS011;23258;49.718;11.082;2023-04-05T02:31:21;2.93;;;2.60;;
37383;SDS011;23258;49.718;11.082;2023-04-05T02:33:50;4.23;;;3.00;;
37383;SDS011;23258;49.718;11.082;2023-04-05T02:36:20;2.93;;;2.57;;
37383;SDS011;23258;49.718;11.082;2023-04-05T02:38:53;2.80;;;2.60;;
37383;SDS011;23258;49.718;11.082;2023-04-05T02:41:23;2.50;;;2.30;;
37383;SDS011;23258;49.718;11.082;2023-04-05T02:43:53;2.47;;;2.33;;
37383;SDS011;23258;49.718;11.082;2023-04-05T02:46:25;3.67;;;2.80;;
37383;SDS011;23258;49.718;11.082;2023-04-05T02:48:55;2.60;;;2.40;;
37383;SDS011;23258;49.718;11.082;2023-04-05T02:51:27;2.70;;;2.47;;
37383;SDS011;23258;49.718;11.082;2023-04-05T02:54:04;3.63;;;2.27;;
37383;SDS011;23258;49.718;11.082;2023-04-05T02:56:35;2.20;;;2.10;;
37383;SDS011;23258;49.718;11.082;2023-04-05T02:59:10;4.73;;;2.30;;
37383;SDS011;23258;49.718;11.082;2023-04-05T03:01:45;2.83;;;2.63;;
37383;SDS011;23258;49.718;11.082;2023-04-05T03:04:23;2.53;;;2.33;;
37383;SDS011;23258;49.718;11.082;2023-04-05T03:06:59;4.83;;;2.40;;
37383;SDS011;23258;49.718;11.082;2023-04-05T03:09:32;2.87;;;2.67;;
37383;SDS011;23258;49.718;11.082;2023-04-05T03:12:07;2.83;;;2.63;;
37383;SDS011;23258;49.718;11.082;2023-04-05T03:14:39;3.07;;;2.77;;
37383;SDS011;23258;49.718;11.082;2023-04-05T03:17:17;2.50;;;2.30;;
37383;SDS011;23258;49.718;11.082;2023-04-05T03:20:00;2.07;;;1.97;;
37383;SDS011;23258;49.718;11.082;2023-04-05T03:22:35;9.80;;;2.47;;
37383;SDS011;23258;49.718;11.082;2023-04-05T03:25:06;2.37;;;2.27;;
37383;SDS011;23258;49.718;11.082;2023-04-05T03:27:42;2.90;;;2.03;;
37383;SDS011;23258;49.718;11.082;2023-04-05T03:30:14;3.03;;;2.80;;
37383;SDS011;23258;49.718;11.082;2023-04-05T03:32:55;3.43;;;2.07;;
37383;SDS011;23258;49.718;11.082;2023-04-05T03:35:35;2.43;;;2.20;;
37383;SDS011;23258;49.718;11.082;2023-04-05T03:38:08;2.07;;;1.97;;
37383;SDS011;23258;49.718;11.082;2023-04-05T03:40:46;4.17;;;2.23;;
37383;SDS011;23258;49.718;11.082;2023-04-05T03:43:15;3.07;;;2.30;;
37383;SDS011;23258;49.718;11.082;2023-04-05T03:45:46;1.63;;;1.53;;
37383;SDS011;23258;49.718;11.082;2023-04-05T03:48:18;1.93;;;1.83;;
37383;SDS011;23258;49.718;11.082;2023-04-05T03:50:48;1.77;;;1.67;;
37383;SDS011;23258;49.718;11.082;2023-04-05T03:53:19;1.83;;;1.73;;
37383;SDS011;23258;49.718;11.082;2023-04-05T03:55:52;2.10;;;2.00;;
37383;SDS011;23258;49.718;11.082;2023-04-05T03:58:39;2.23;;;2.13;;
37383;SDS011;23258;49.718;11.082;2023-04-05T04:01:11;2.40;;;2.20;;
37383;SDS011;23258;49.718;11.082;2023-04-05T04:03:43;2.30;;;2.10;;
37383;SDS011;23258;49.718;11.082;2023-04-05T04:06:13;2.40;;;2.30;;
37383;SDS011;23258;49.718;11.082;2023-04-05T04:08:45;2.70;;;2.50;;
37383;SDS011;23258;49.718;11.082;2023-04-05T04:11:14;3.57;;;2.70;;
37383;SDS011;23258;49.718;11.082;2023-04-05T04:13:45;2.40;;;2.20;;
37383;SDS011;23258;49.718;11.082;2023-04-05T04:16:21;2.47;;;2.30;;
37383;SDS011;23258;49.718;11.082;2023-04-05T04:19:02;4.23;;;2.47;;
37383;SDS011;23258;49.718;11.082;2023-04-05T04:21:32;3.00;;;2.77;;
37383;SDS011;23258;49.718;11.082;2023-04-05T04:24:25;2.50;;;2.30;;
37383;SDS011;23258;49.718;11.082;2023-04-05T04:27:27;3.10;;;2.80;;
37383;SDS011;23258;49.718;11.082;2023-04-05T04:30:15;5.37;;;2.97;;
37383;SDS011;23258;49.718;11.082;2023-04-05T04:33:03;3.23;;;2.80;;
37383;SDS011;23258;49.718;11.082;2023-04-05T04:36:08;3.50;;;2.57;;
37383;SDS011;23258;49.718;11.082;2023-04-05T04:38:58;3.07;;;2.50;;
37383;SDS011;23258;49.718;11.082;2023-04-05T04:41:44;2.40;;;2.20;;
37383;SDS011;23258;49.718;11.082;2023-04-05T04:44:44;2.07;;;1.97;;
37383;SDS011;23258;49.718;11.082;2023-04-05T04:47:28;2.57;;;2.37;;
37383;SDS011;23258;49.718;11.082;2023-04-05T04:50:14;2.63;;;2.43;;
37383;SDS011;23258;49.718;11.082;2023-04-05T04:52:48;2.70;;;2.50;;
37383;SDS011;23258;49.718;11.082;2023-04-05T04:55:18;3.33;;;2.80;;
37383;SDS011;23258;49.718;11.082;2023-04-05T04:57:51;2.60;;;2.40;;
37383;SDS011;23258;49.718;11.082;2023-04-05T05:00:21;3.03;;;2.73;;
37383;SDS011;23258;49.718;11.082;2023-04-05T05:02:54;8.00;;;4.90;;
37383;SDS011;23258;49.718;11.082;2023-04-05T05:05:24;12.23;;;6.40;;
37383;SDS011;23258;49.718;11.082;2023-04-05T05:07:56;11.40;;;6.80;;
37383;SDS011;23258;49.718;11.082;2023-04-05T05:10:26;16.37;;;9.43;;
37383;SDS011;23258;49.718;11.082;2023-04-05T05:13:00;16.83;;;9.00;;
37383;SDS011;23258;49.718;11.082;2023-04-05T05:15:30;10.00;;;5.33;;
37383;SDS011;23258;49.718;11.082;2023-04-05T05:18:00;5.40;;;3.60;;
37383;SDS011;23258;49.718;11.082;2023-04-05T05:20:30;4.87;;;3.30;;
37383;SDS011;23258;49.718;11.082;2023-04-05T05:23:03;4.73;;;3.60;;
37383;SDS011;23258;49.718;11.082;2023-04-05T05:25:33;10.03;;;3.47;;
37383;SDS011;23258;49.718;11.082;2023-04-05T05:28:04;4.60;;;4.07;;
37383;SDS011;23258;49.718;11.082;2023-04-05T05:30:34;4.97;;;4.00;;
37383;SDS011;23258;49.718;11.082;2023-04-05T05:33:03;3.63;;;3.33;;
37383;SDS011;23258;49.718;11.082;2023-04-05T05:35:33;3.80;;;3.40;;
37383;SDS011;23258;49.718;11.082;2023-04-05T05:38:06;3.50;;;3.13;;
37383;SDS011;23258;49.718;11.082;2023-04-05T05:40:39;4.93;;;3.97;;
37383;SDS011;23258;49.718;11.082;2023-04-05T05:43:09;4.40;;;4.00;;
37383;SDS011;23258;49.718;11.082;2023-04-05T05:45:38;3.17;;;2.97;;
37383;SDS011;23258;49.718;11.082;2023-04-05T05:48:08;7.13;;;3.80;;
37383;SDS011;23258;49.718;11.082;2023-04-05T05:50:38;5.73;;;4.37;;
37383;SDS011;23258;49.718;11.082;2023-04-05T05:53:10;6.27;;;4.50;;
37383;SDS011;23258;49.718;11.082;2023-04-05T05:55:40;5.40;;;4.13;;
37383;SDS011;23258;49.718;11.082;2023-04-05T05:58:10;5.13;;;4.63;;
37383;SDS011;23258;49.718;11.082;2023-04-05T06:00:40;6.20;;;5.17;;
37383;SDS011;23258;49.718;11.082;2023-04-05T06:03:09;7.20;;;5.23;;
37383;SDS011;23258;49.718;11.082;2023-04-05T06:05:39;5.50;;;5.00;;
37383;SDS011;23258;49.718;11.082;2023-04-05T06:08:12;5.27;;;4.87;;
37383;SDS011;23258;49.718;11.082;2023-04-05T06:10:41;5.23;;;4.73;;
37383;SDS011;23258;49.718;11.082;2023-04-05T06:13:11;5.20;;;4.73;;
37383;SDS011;23258;49.718;11.082;2023-04-05T06:15:41;6.90;;;5.37;;
37383;SDS011;23258;49.718;11.082;2023-04-05T06:18:10;6.03;;;5.40;;
37383;SDS011;23258;49.718;11.082;2023-04-05T06:20:40;7.00;;;5.50;;
37383;SDS011;23258;49.718;11.082;2023-04-05T06:23:13;5.67;;;5.23;;
37383;SDS011;23258;49.718;11.082;2023-04-05T06:25:43;7.03;;;5.57;;
37383;SDS011;23258;49.718;11.082;2023-04-05T06:28:12;6.07;;;4.90;;
37383;SDS011;23258;49.718;11.082;2023-04-05T06:30:42;5.83;;;5.30;;
37383;SDS011;23258;49.718;11.082;2023-04-05T06:33:12;5.93;;;5.40;;
37383;SDS011;23258;49.718;11.082;2023-04-05T06:35:41;6.13;;;5.20;;
37383;SDS011;23258;49.718;11.082;2023-04-05T06:38:13;5.53;;;5.03;;
37383;SDS011;23258;49.718;11.082;2023-04-05T06:40:43;6.20;;;5.10;;
37383;SDS011;23258;49.718;11.082;2023-04-05T06:43:13;5.43;;;4.53;;
37383;SDS011;23258;49.718;11.082;2023-04-05T06:45:43;6.40;;;4.83;;
37383;SDS011;23258;49.718;11.082;2023-04-05T06:48:12;6.73;;;5.10;;
37383;SDS011;23258;49.718;11.082;2023-04-05T06:50:42;5.03;;;4.20;;
37383;SDS011;23258;49.718;11.082;2023-04-05T06:53:14;4.70;;;4.17;;
37383;SDS011;23258;49.718;11.082;2023-04-05T06:55:47;4.60;;;4.20;;
37383;SDS011;23258;49.718;11.082;2023-04-05T06:58:17;5.70;;;4.53;;
37383;SDS011;23258;49.718;11.082;2023-04-05T07:00:47;4.67;;;4.33;;
37383;SDS011;23258;49.718;11.082;2023-04-05T07:03:16;4.40;;;4.00;;
37383;SDS011;23258;49.718;11.082;2023-04-05T07:05:50;6.13;;;4.57;;
37383;SDS011;23258;49.718;11.082;2023-04-05T07:08:23;5.70;;;4.80;;
37383;SDS011;23258;49.718;11.082;2023-04-05T07:10:53;5.50;;;4.37;;
37383;SDS011;23258;49.718;11.082;2023-04-05T07:13:23;4.23;;;3.73;;
37383;SDS011;23258;49.718;11.082;2023-04-05T07:15:58;4.80;;;4.40;;
37383;SDS011;23258;49.718;11.082;2023-04-05T07:18:28;4.10;;;3.80;;
37383;SDS011;23258;49.718;11.082;2023-04-05T07:20:58;4.00;;;3.53;;
37383;SDS011;23258;49.718;11.082;2023-04-05T07:23:33;4.27;;;3.80;;
37383;SDS011;23258;49.718;11.082;2023-04-05T07:26:03;3.90;;;3.50;;
37383;SDS011;23258;49.718;11.082;2023-04-05T07:28:34;3.57;;;3.33;;
37383;SDS011;23258;49.718;11.082;2023-04-05T07:31:04;3.30;;;3.10;;
37383;SDS011;23258;49.718;11.082;2023-04-05T07:33:34;3.57;;;3.10;;
37383;SDS011;23258;49.718;11.082;2023-04-05T07:36:04;2.80;;;2.60;;
37383;SDS011;23258;49.718;11.082;2023-04-05T07:38:37;3.30;;;3.00;;
37383;SDS011;23258;49.718;11.082;2023-04-05T07:41:07;3.87;;;2.43;;
37383;SDS011;23258;49.718;11.082;2023-04-05T07:43:37;2.40;;;2.13;;
37383;SDS011;23258;49.718;11.082;2023-04-05T07:46:06;3.23;;;2.60;;
37383;SDS011;23258;49.718;11.082;2023-04-05T07:48:36;2.20;;;2.10;;
37383;SDS011;23258;49.718;11.082;2023-04-05T07:51:06;2.97;;;2.63;;
37383;SDS011;23258;49.718;11.082;2023-04-05T07:53:39;2.57;;;2.40;;
37383;SDS011;23258;49.718;11.082;2023-04-05T07:56:09;2.10;;;2.00;;
37383;SDS011;23258;49.718;11.082;2023-04-05T07:58:40;2.30;;;2.13;;
37383;SDS011;23258;49.718;11.082;2023-04-05T08:01:09;2.20;;;2.07;;
37383;SDS011;23258;49.718;11.082;2023-04-05T08:03:39;2.97;;;2.47;;
37383;SDS011;23258;49.718;11.082;2023-04-05T08:06:10;1.87;;;1.77;;
37383;SDS011;23258;49.718;11.082;2023-04-05T08:08:42;2.50;;;2.07;;
37383;SDS011;23258;49.718;11.082;2023-04-05T08:11:12;2.70;;;2.50;;
37383;SDS011;23258;49.718;11.082;2023-04-05T08:13:42;2.07;;;1.87;;
37383;SDS011;23258;49.718;11.082;2023-04-05T08:16:12;2.10;;;1.90;;
37383;SDS011;23258;49.718;11.082;2023-04-05T08:18:42;2.15;;;2.00;;
37383;SDS011;23258;49.718;11.082;2023-04-05T08:21:11;3.80;;;2.60;;
37383;SDS011;23258;49.718;11.082;2023-04-05T08:23:44;2.90;;;2.08;;
37383;SDS011;23258;49.718;11.082;2023-04-05T08:26:15;5.18;;;2.78;;
37383;SDS011;23258;49.718;11.082;2023-04-05T08:28:45;2.10;;;2.00;;
37383;SDS011;23258;49.718;11.082;2023-04-05T08:31:14;4.87;;;2.30;;
37383;SDS011;23258;49.718;11.082;2023-04-05T08:33:44;2.28;;;1.98;;
37383;SDS011;23258;49.718;11.082;2023-04-05T08:36:14;2.40;;;2.20;;
37383;SDS011;23258;49.718;11.082;2023-04-05T08:38:46;2.15;;;2.05;;
37383;SDS011;23258;49.718;11.082;2023-04-05T08:41:17;2.58;;;2.38;;
37383;SDS011;23258;49.718;11.082;2023-04-05T08:43:52;1.90;;;1.80;;
37383;SDS011;23258;49.718;11.082;2023-04-05T08:46:23;2.72;;;2.53;;
37383;SDS011;23258;49.718;11.082;2023-04-05T08:48:53;2.55;;;2.35;;
37383;SDS011;23258;49.718;11.082;2023-04-05T08:51:24;2.20;;;2.03;;
37383;SDS011;23258;49.718;11.082;2023-04-05T08:53:57;2.42;;;2.22;;
37383;SDS011;23258;49.718;11.082;2023-04-05T08:56:30;2.35;;;2.15;;
37383;SDS011;23258;49.718;11.082;2023-04-05T08:59:01;2.42;;;2.22;;
37383;SDS011;23258;49.718;11.082;2023-04-05T09:01:32;1.88;;;1.77;;
37383;SDS011;23258;49.718;11.082;2023-04-05T09:04:04;1.98;;;1.80;;
37383;SDS011;23258;49.718;11.082;2023-04-05T09:06:34;4.80;;;2.53;;
37383;SDS011;23258;49.718;11.082;2023-04-05T09:09:07;2.03;;;1.92;;
37383;SDS011;23258;49.718;11.082;2023-04-05T09:11:37;2.08;;;1.92;;
37383;SDS011;23258;49.718;11.082;2023-04-05T09:14:08;2.85;;;2.65;;
37383;SDS011;23258;49.718;11.082;2023-04-05T09:16:38;4.72;;;2.30;;
37383;SDS011;23258;49.718;11.082;2023-04-05T09:19:08;3.45;;;2.35;;
37383;SDS011;23258;49.718;11.082;2023-04-05T09:24:31;2.03;;;1.92;;
37383;SDS011;23258;49.718;11.082;2023-04-05T09:27:03;2.28;;;2.10;;
37383;SDS011;23258;49.718;11.082;2023-04-05T09:29:34;2.30;;;2.20;;
37383;SDS011;23258;49.718;11.082;2023-04-05T09:32:05;3.05;;;2.65;;
37383;SDS011;23258;49.718;11.082;2023-04-05T09:34:35;2.47;;;2.28;;
37383;SDS011;23258;49.718;11.082;2023-04-05T09:37:12;2.83;;;2.50;;
37383;SDS011;23258;49.718;11.082;2023-04-05T09:39:46;2.30;;;2.13;;
37383;SDS011;23258;49.718;11.082;2023-04-05T09:42:17;2.40;;;2.17;;
37383;SDS011;23258;49.718;11.082;2023-04-05T09:44:49;2.15;;;2.05;;
37383;SDS011;23258;49.718;11.082;2023-04-05T09:47:19;2.88;;;2.58;;
37383;SDS011;23258;49.718;11.082;2023-04-05T09:49:54;3.85;;;2.38;;
37383;SDS011;23258;49.718;11.082;2023-04-05T09:52:25;2.60;;;2.40;;
37383;SDS011;23258;49.718;11.082;2023-04-05T09:54:58;2.30;;;2.20;;
37383;SDS011;23258;49.718;11.082;2023-04-05T09:57:32;2.60;;;2.28;;
37383;SDS011;23258;49.718;11.082;2023-04-05T10:00:02;3.55;;;2.08;;
37383;SDS011;23258;49.718;11.082;2023-04-05T10:02:40;2.50;;;2.28;;
37383;SDS011;23258;49.718;11.082;2023-04-05T10:05:10;2.53;;;1.95;;
37383;SDS011;23258;49.718;11.082;2023-04-05T10:07:41;2.35;;;2.22;;
37383;SDS011;23258;49.718;11.082;2023-04-05T10:10:14;2.88;;;2.65;;
37383;SDS011;23258;49.718;11.082;2023-04-05T10:12:43;2.80;;;2.60;;
37383;SDS011;23258;49.718;11.082;2023-04-05T10:15:14;2.50;;;2.30;;
37383;SDS011;23258;49.718;11.082;2023-04-05T10:17:46;2.65;;;2.33;;
37383;SDS011;23258;49.718;11.082;2023-04-05T10:20:18;2.50;;;2.30;;
37383;SDS011;23258;49.718;11.082;2023-04-05T10:25:46;2.97;;;2.10;;
37383;SDS011;23258;49.718;11.082;2023-04-05T10:28:21;2.47;;;2.28;;
37383;SDS011;23258;49.718;11.082;2023-04-05T10:30:58;3.33;;;2.13;;
37383;SDS011;23258;49.718;11.082;2023-04-05T10:33:33;2.58;;;2.33;;
37383;SDS011;23258;49.718;11.082;2023-04-05T10:36:09;2.38;;;2.22;;
37383;SDS011;23258;49.718;11.082;2023-04-05T10:38:44;2.25;;;2.13;;
37383;SDS011;23258;49.718;11.082;2023-04-05T10:41:20;4.25;;;2.33;;
37383;SDS011;23258;49.718;11.082;2023-04-05T10:43:50;1.98;;;1.88;;
37383;SDS011;23258;49.718;11.082;2023-04-05T10:46:20;1.95;;;1.83;;
37383;SDS011;23258;49.718;11.082;2023-04-05T10:48:52;2.40;;;2.17;;
37383;SDS011;23258;49.718;11.082;2023-04-05T10:51:23;2.60;;;1.90;;
37383;SDS011;23258;49.718;11.082;2023-04-05T10:53:53;3.35;;;2.53;;
37383;SDS011;23258;49.718;11.082;2023-04-05T10:56:25;3.15;;;2.30;;
37383;SDS011;23258;49.718;11.082;2023-04-05T10:58:56;2.42;;;2.22;;
37383;SDS011;23258;49.718;11.082;2023-04-05T11:01:27;5.10;;;3.10;;
37383;SDS011;23258;49.718;11.082;2023-04-05T11:03:57;2.38;;;2.20;;
37383;SDS011;23258;49.718;11.082;2023-04-05T11:06:39;2.78;;;2.58;;
37383;SDS011;23258;49.718;11.082;2023-04-05T11:09:10;4.20;;;2.42;;
37383;SDS011;23258;49.718;11.082;2023-04-05T11:11:44;2.40;;;2.30;;
37383;SDS011;23258;49.718;11.082;2023-04-05T11:14:18;2.53;;;2.38;;
37383;SDS011;23258;49.718;11.082;2023-04-05T11:16:48;3.03;;;2.83;;
37383;SDS011;23258;49.718;11.082;2023-04-05T11:19:20;2.75;;;2.47;;
37383;SDS011;23258;49.718;11.082;2023-04-05T11:21:49;2.75;;;2.55;;
37383;SDS011;23258;49.718;11.082;2023-04-05T11:24:32;3.30;;;3.00;;
37383;SDS011;23258;49.718;11.082;2023-04-05T11:27:24;2.35;;;2.08;;
37383;SDS011;23258;49.718;11.082;2023-04-05T11:29:54;2.95;;;2.65;;
37383;SDS011;23258;49.718;11.082;2023-04-05T11:32:36;2.47;;;2.33;;
37383;SDS011;23258;49.718;11.082;2023-04-05T11:35:07;1.90;;;1.80;;
37383;SDS011;23258;49.718;11.082;2023-04-05T11:37:53;2.63;;;2.42;;
37383;SDS011;23258;49.718;11.082;2023-04-05T11:40:28;2.30;;;2.20;;
37383;SDS011;23258;49.718;11.082;2023-04-05T11:43:01;2.38;;;2.28;;
37383;SDS011;23258;49.718;11.082;2023-04-05T11:45:31;2.40;;;2.20;;
37383;SDS011;23258;49.718;11.082;2023-04-05T11:48:03;2.45;;;2.25;;
37383;SDS011;23258;49.718;11.082;2023-04-05T11:50:34;2.47;;;2.30;;
37383;SDS011;23258;49.718;11.082;2023-04-05T11:53:07;2.53;;;2.33;;
37383;SDS011;23258;49.718;11.082;2023-04-05T11:55:38;3.20;;;2.42;;
37383;SDS011;23258;49.718;11.082;2023-04-05T11:58:15;1.92;;;1.77;;
37383;SDS011;23258;49.718;11.082;2023-04-05T12:00:45;2.40;;;2.20;;
37383;SDS011;23258;49.718;11.082;2023-04-05T12:03:15;2.40;;;2.30;;
37383;SDS011;23258;49.718;11.082;2023-04-05T12:05:46;2.05;;;1.95;;
37383;SDS011;23258;49.718;11.082;2023-04-05T12:08:16;2.08;;;1.92;;
37383;SDS011;23258;49.718;11.082;2023-04-05T12:10:52;2.50;;;2.30;;
37383;SDS011;23258;49.718;11.082;2023-04-05T12:13:31;3.92;;;2.50;;
37383;SDS011;23258;49.718;11.082;2023-04-05T12:16:02;2.70;;;2.50;;
37383;SDS011;23258;49.718;11.082;2023-04-05T12:18:33;1.90;;;1.80;;
37383;SDS011;23258;49.718;11.082;2023-04-05T12:21:03;3.45;;;2.40;;
37383;SDS011;23258;49.718;11.082;2023-04-05T12:23:33;2.60;;;2.40;;
37383;SDS011;23258;49.718;11.082;2023-04-05T12:26:05;2.38;;;2.28;;
37383;SDS011;23258;49.718;11.082;2023-04-05T12:31:39;4.22;;;2.42;;
37383;SDS011;23258;49.718;11.082;2023-04-05T12:34:09;2.63;;;2.42;;
37383;SDS011;23258;49.718;11.082;2023-04-05T12:36:42;3.85;;;1.98;;
37383;SDS011;23258;49.718;11.082;2023-04-05T12:39:14;3.80;;;2.15;;
37383;SDS011;23258;49.718;11.082;2023-04-05T12:41:44;3.92;;;2.47;;
37383;SDS011;23258;49.718;11.082;2023-04-05T12:44:28;1.85;;;1.75;;
37383;SDS011;23258;49.718;11.082;2023-04-05T12:47:04;2.30;;;2.10;;
37383;SDS011;23258;49.718;11.082;2023-04-05T12:49:39;1.75;;;1.65;;
37383;SDS011;23258;49.718;11.082;2023-04-05T12:52:08;2.50;;;2.20;;
37383;SDS011;23258;49.718;11.082;2023-04-05T12:54:38;2.75;;;2.55;;
37383;SDS011;23258;49.718;11.082;2023-04-05T12:57:08;2.83;;;2.53;;
37383;SDS011;23258;49.718;11.082;2023-04-05T12:59:39;2.38;;;2.10;;
37383;SDS011;23258;49.718;11.082;2023-04-05T13:02:12;2.72;;;2.35;;
37383;SDS011;23258;49.718;11.082;2023-04-05T13:04:41;2.25;;;2.03;;
37383;SDS011;23258;49.718;11.082;2023-04-05T13:07:11;3.10;;;2.58;;
37383;SDS011;23258;49.718;11.082;2023-04-05T13:09:41;2.67;;;2.25;;
37383;SDS011;23258;49.718;11.082;2023-04-05T13:12:11;2.38;;;2.05;;
37383;SDS011;23258;49.718;11.082;2023-04-05T13:14:40;1.83;;;1.73;;
37383;SDS011;23258;49.718;11.082;2023-04-05T13:17:13;2.10;;;2.00;;
37383;SDS011;23258;49.718;11.082;2023-04-05T13:19:42;2.15;;;2.03;;
37383;SDS011;23258;49.718;11.082;2023-04-05T13:22:12;2.50;;;2.30;;
37383;SDS011;23258;49.718;11.082;2023-04-05T13:24:42;3.90;;;2.30;;
37383;SDS011;23258;49.718;11.082;2023-04-05T13:27:11;2.38;;;2.17;;
37383;SDS011;23258;49.718;11.082;2023-04-05T13:29:41;2.55;;;2.22;;
37383;SDS011;23258;49.718;11.082;2023-04-05T13:32:13;2.72;;;2.40;;
37383;SDS011;23258;49.718;11.082;2023-04-05T13:34:43;2.45;;;2.25;;
37383;SDS011;23258;49.718;11.082;2023-04-05T13:37:14;3.22;;;2.13;;
37383;SDS011;23258;49.718;11.082;2023-04-05T13:39:43;2.30;;;2.20;;
37383;SDS011;23258;49.718;11.082;2023-04-05T13:42:13;2.28;;;2.00;;
37383;SDS011;23258;49.718;11.082;2023-04-05T13:44:43;2.13;;;1.92;;
37383;SDS011;23258;49.718;11.082;2023-04-05T13:47:15;2.55;;;2.35;;
37383;SDS011;23258;49.718;11.082;2023-04-05T13:49:45;2.33;;;1.90;;
37383;SDS011;23258;49.718;11.082;2023-04-05T13:52:15;3.53;;;2.10;;
37383;SDS011;23258;49.718;11.082;2023-04-05T13:54:45;2.22;;;2.13;;
37383;SDS011;23258;49.718;11.082;2023-04-05T13:57:28;3.05;;;2.30;;
37383;SDS011;23258;49.718;11.082;2023-04-05T13:59:57;2.17;;;2.08;;
37383;SDS011;23258;49.718;11.082;2023-04-05T14:02:39;2.00;;;1.90;;
37383;SDS011;23258;49.718;11.082;2023-04-05T14:05:09;2.97;;;2.53;;
37383;SDS011;23258;49.718;11.082;2023-04-05T14:07:41;2.00;;;1.80;;
37383;SDS011;23258;49.718;11.082;2023-04-05T14:10:11;2.47;;;2.00;;
37383;SDS011;23258;49.718;11.082;2023-04-05T14:12:41;2.72;;;2.22;;
37383;SDS011;23258;49.718;11.082;2023-04-05T14:15:10;2.50;;;2.30;;
37383;SDS011;23258;49.718;11.082;2023-04-05T14:17:43;2.60;;;2.40;;
37383;SDS011;23258;49.718;11.082;2023-04-05T14:20:13;2.92;;;2.30;;
37383;SDS011;23258;49.718;11.082;2023-04-05T14:22:42;2.85;;;2.65;;
37383;SDS011;23258;49.718;11.082;2023-04-05T14:25:12;6.07;;;2.40;;
37383;SDS011;23258;49.718;11.082;2023-04-05T14:27:42;4.53;;;2.42;;
37383;SDS011;23258;49.718;11.082;2023-04-05T14:30:12;2.88;;;2.38;;
37383;SDS011;23258;49.718;11.082;2023-04-05T14:32:45;2.80;;;2.53;;
37383;SDS011;23258;49.718;11.082;2023-04-05T14:35:14;2.50;;;2.30;;
37383;SDS011;23258;49.718;11.082;2023-04-05T14:37:44;3.20;;;2.55;;
37383;SDS011;23258;49.718;11.082;2023-04-05T14:40:14;2.53;;;2.33;;
37383;SDS011;23258;49.718;11.082;2023-04-05T14:42:44;2.38;;;2.22;;
37383;SDS011;23258;49.718;11.082;2023-04-05T14:45:16;2.60;;;2.40;;
37383;SDS011;23258;49.718;11.082;2023-04-05T14:47:48;2.38;;;2.17;;
37383;SDS011;23258;49.718;11.082;2023-04-05T14:50:18;2.72;;;2.28;;
37383;SDS011;23258;49.718;11.082;2023-04-05T14:52:48;4.32;;;2.58;;
37383;SDS011;23258;49.718;11.082;2023-04-05T14:55:18;2.50;;;2.30;;
37383;SDS011;23258;49.718;11.082;2023-04-05T14:57:48;2.67;;;2.47;;
37383;SDS011;23258;49.718;11.082;2023-04-05T15:00:18;2.50;;;2.30;;
37383;SDS011;23258;49.718;11.082;2023-04-05T15:02:50;1.85;;;1.75;;
37383;SDS011;23258;49.718;11.082;2023-04-05T15:05:20;2.97;;;1.92;;
37383;SDS011;23258;49.718;11.082;2023-04-05T15:07:50;2.65;;;2.00;;
37383;SDS011;23258;49.718;11.082;2023-04-05T15:10:20;2.42;;;2.22;;
37383;SDS011;23258;49.718;11.082;2023-04-05T15:12:49;2.10;;;1.95;;